Time;durP1;ratioP1;P1;durP2;ratioP2;P2;SDS_P1;SDS_P2;PMS_P1;PMS_P2;Temp;Humidity;BMP_temperature;BMP_pressure;BME280_temperature;BME280_humidity;BME280_pressure;Samples;Min_cycle;Max_cycle;Signal;HPM_P1;HPM_P2
2022/05/12 00:01:31;;;;;;;5.60;2.33;;;15.30;99.90;;;;;;4958135;28;20201;-75
2022/05/12 00:04:15;;;;;;;2.90;1.50;;;15.30;99.90;;;;;;4958022;28;20240;-74
2022/05/12 00:07:00;;;;;;;3.57;1.40;;;15.30;99.90;;;;;;4957642;28;20191;-74
2022/05/12 00:09:44;;;;;;;2.13;1.17;;;15.20;99.90;;;;;;4957304;28;20240;-73
2022/05/12 00:12:29;;;;;;;2.00;1.10;;;15.20;99.90;;;;;;4970399;28;20361;-73
2022/05/12 00:15:23;;;;;;;3.70;1.20;;;15.20;99.90;;;;;;4968512;28;20249;-75
2022/05/12 00:18:08;;;;;;;3.37;0.93;;;15.10;99.90;;;;;;4968176;28;20275;-74
2022/05/12 00:20:53;;;;;;;1.90;1.13;;;15.10;99.90;;;;;;4951266;28;20661;-75
2022/05/12 00:23:37;;;;;;;2.10;1.27;;;15.00;99.90;;;;;;4953162;28;20707;-74
2022/05/12 00:26:27;;;;;;;5.43;1.40;;;14.90;99.90;;;;;;4956288;28;20620;-74
2022/05/12 00:29:13;;;;;;;7.97;1.30;;;14.80;99.90;;;;;;4948022;28;20669;-75
2022/05/12 00:31:57;;;;;;;1.90;1.23;;;14.60;99.90;;;;;;4955225;28;20299;-74
2022/05/12 00:34:41;;;;;;;2.83;1.27;;;14.60;99.90;;;;;;4968532;28;20233;-74
2022/05/12 00:37:25;;;;;;;3.70;1.50;;;14.50;99.90;;;;;;4960898;28;20284;-76
2022/05/12 00:40:10;;;;;;;5.57;1.40;;;14.40;99.90;;;;;;4959575;28;20225;-75
2022/05/12 00:43:03;;;;;;;2.63;1.00;;;14.40;99.90;;;;;;4957267;28;20232;-75
2022/05/12 00:45:49;;;;;;;5.50;1.40;;;14.40;99.90;;;;;;4951427;28;20248;-75
2022/05/12 00:48:33;;;;;;;5.27;1.23;;;14.30;99.90;;;;;;4955617;28;20209;-74
2022/05/12 00:51:22;;;;;;;2.37;1.10;;;14.20;99.90;;;;;;4959218;28;20253;-75
2022/05/12 00:54:12;;;;;;;5.50;1.37;;;14.20;99.90;;;;;;4954443;28;20221;-75
2022/05/12 00:56:58;;;;;;;9.80;1.50;;;14.10;99.90;;;;;;4959572;28;20186;-76
2022/05/12 00:59:43;;;;;;;2.17;1.27;;;14.00;99.90;;;;;;4946989;28;20573;-75
2022/05/12 01:02:28;;;;;;;4.13;1.10;;;13.90;99.90;;;;;;4959291;28;20220;-76
2022/05/12 01:05:14;;;;;;;4.47;1.50;;;13.80;99.90;;;;;;4955054;28;20274;-76
2022/05/12 01:07:59;;;;;;;3.97;1.40;;;13.70;99.90;;;;;;4954480;28;20240;-75
2022/05/12 01:10:47;;;;;;;4.80;1.37;;;13.70;99.90;;;;;;4957008;28;20193;-76
2022/05/12 01:13:31;;;;;;;5.90;1.57;;;13.60;99.90;;;;;;4954569;28;20261;-76
2022/05/12 01:16:36;;;;;;;5.83;1.73;;;13.60;99.90;;;;;;4952359;28;20213;-76
2022/05/12 01:19:27;;;;;;;4.90;1.30;;;13.50;99.90;;;;;;4950317;28;20224;-76
2022/05/12 01:22:34;;;;;;;3.73;1.30;;;13.50;99.90;;;;;;4969085;28;20562;-75
2022/05/12 01:25:22;;;;;;;1.73;0.90;;;13.50;99.90;;;;;;4966775;28;20197;-76
2022/05/12 01:28:07;;;;;;;2.63;1.00;;;13.40;99.90;;;;;;4948932;28;20189;-76
2022/05/12 01:30:51;;;;;;;4.30;0.90;;;13.30;99.90;;;;;;4965471;28;20321;-75
2022/05/12 01:33:35;;;;;;;2.47;1.00;;;13.20;99.90;;;;;;4971799;28;20276;-76
2022/05/12 01:36:21;;;;;;;2.63;0.97;;;13.10;99.90;;;;;;4955426;28;20649;-75
2022/05/12 01:39:09;;;;;;;3.57;0.80;;;13.00;99.90;;;;;;4965968;28;20226;-76
2022/05/12 01:41:53;;;;;;;2.57;0.80;;;13.00;99.90;;;;;;4956930;28;20197;-75
2022/05/12 01:44:38;;;;;;;3.13;0.70;;;13.00;99.90;;;;;;4954918;28;20201;-75
2022/05/12 01:47:23;;;;;;;3.83;1.13;;;12.90;99.90;;;;;;4968045;28;20197;-76
2022/05/12 01:50:09;;;;;;;1.43;0.70;;;12.90;99.90;;;;;;4955338;28;20197;-75
2022/05/12 01:52:53;;;;;;;1.57;0.50;;;12.90;99.90;;;;;;4963984;28;20297;-75
2022/05/12 01:55:39;;;;;;;3.50;0.90;;;12.80;99.90;;;;;;4955918;28;20189;-75
2022/05/12 01:58:23;;;;;;;2.80;0.90;;;12.80;99.90;;;;;;4953251;28;20232;-75
2022/05/12 02:01:07;;;;;;;6.07;1.00;;;12.80;99.90;;;;;;4961830;28;20190;-75
2022/05/12 02:03:51;;;;;;;3.40;0.70;;;12.70;99.90;;;;;;4948342;28;20760;-74
2022/05/12 02:06:35;;;;;;;2.80;1.00;;;12.70;99.90;;;;;;4954440;28;20683;-74
2022/05/12 02:09:20;;;;;;;3.60;0.90;;;12.60;99.90;;;;;;4961312;28;20272;-75
2022/05/12 02:12:05;;;;;;;2.20;0.83;;;12.50;99.90;;;;;;4959595;28;20229;-75
2022/05/12 02:14:49;;;;;;;2.33;0.83;;;12.40;99.90;;;;;;4969707;28;20201;-74
2022/05/12 02:17:33;;;;;;;1.80;1.03;;;12.40;99.90;;;;;;4953159;28;20690;-75
2022/05/12 02:20:21;;;;;;;4.63;1.17;;;12.40;99.90;;;;;;4953841;28;20264;-75
2022/05/12 02:23:05;;;;;;;1.87;1.07;;;12.30;99.90;;;;;;4952245;28;20228;-75
2022/05/12 02:25:50;;;;;;;3.67;1.00;;;12.30;99.90;;;;;;4944847;28;20246;-75
2022/05/12 02:28:34;;;;;;;2.93;1.23;;;12.20;99.90;;;;;;4969125;28;20541;-74
2022/05/12 02:31:19;;;;;;;3.70;1.17;;;12.20;99.90;;;;;;4950794;28;20197;-75
2022/05/12 02:34:03;;;;;;;2.40;1.60;;;12.20;99.90;;;;;;4956053;28;20236;-75
2022/05/12 02:36:59;;;;;;;2.13;0.97;;;12.10;99.90;;;;;;4946781;28;20204;-75
2022/05/12 02:39:44;;;;;;;1.60;0.80;;;12.10;99.90;;;;;;4941050;28;20186;-75
2022/05/12 02:42:28;;;;;;;1.57;0.87;;;12.00;99.90;;;;;;4950319;28;20221;-75
2022/05/12 02:45:13;;;;;;;3.67;1.60;;;12.00;99.90;;;;;;4970238;28;20252;-74
2022/05/12 02:47:57;;;;;;;1.00;0.87;;;12.00;99.90;;;;;;4951638;28;20315;-75
2022/05/12 02:50:43;;;;;;;4.67;1.10;;;12.00;99.90;;;;;;4949109;28;20185;-75
2022/05/12 02:53:28;;;;;;;2.27;0.83;;;11.90;99.90;;;;;;4953535;28;20240;-75
2022/05/12 02:56:13;;;;;;;1.77;0.90;;;11.90;99.90;;;;;;4952062;28;20279;-75
2022/05/12 02:58:57;;;;;;;1.70;0.90;;;11.90;99.90;;;;;;4951062;28;20576;-75
2022/05/12 03:01:41;;;;;;;5.23;1.20;;;11.80;99.90;;;;;;4952278;28;20185;-75
2022/05/12 03:04:26;;;;;;;2.93;1.37;;;11.80;99.90;;;;;;4966098;28;20264;-75
2022/05/12 03:07:10;;;;;;;3.57;1.20;;;11.70;99.90;;;;;;4971128;28;20193;-74
2022/05/12 03:09:55;;;;;;;2.70;1.60;;;11.70;99.90;;;;;;4948464;28;20186;-75
2022/05/12 03:12:39;;;;;;;1.53;0.90;;;11.70;99.90;;;;;;4967916;28;20213;-74
2022/05/12 03:15:23;;;;;;;4.20;1.10;;;11.60;99.90;;;;;;4958452;28;20216;-75
2022/05/12 03:18:08;;;;;;;1.80;0.90;;;11.60;99.90;;;;;;4950215;28;20214;-75
2022/05/12 03:20:52;;;;;;;2.70;1.10;;;11.60;99.90;;;;;;4955828;28;20193;-75
2022/05/12 03:23:37;;;;;;;1.73;0.90;;;11.50;99.90;;;;;;4965988;28;20360;-75
2022/05/12 03:26:22;;;;;;;2.70;1.20;;;11.50;99.90;;;;;;4951323;28;20236;-75
2022/05/12 03:29:06;;;;;;;2.83;0.93;;;11.50;99.90;;;;;;4948706;28;20193;-75
2022/05/12 03:31:50;;;;;;;2.40;1.10;;;11.50;99.90;;;;;;4955249;28;20213;-74
2022/05/12 03:34:34;;;;;;;4.47;1.20;;;11.40;99.90;;;;;;4956190;28;20337;-74
2022/05/12 03:37:18;;;;;;;1.67;0.90;;;11.30;99.90;;;;;;4945539;28;20225;-74
2022/05/12 03:40:05;;;;;;;3.50;1.00;;;11.30;99.90;;;;;;4947816;28;20205;-75
2022/05/12 03:42:50;;;;;;;3.73;1.30;;;11.20;99.90;;;;;;4962238;28;20292;-75
2022/05/12 03:45:34;;;;;;;2.60;1.20;;;11.20;99.90;;;;;;4953708;28;20199;-75
2022/05/12 03:48:18;;;;;;;3.90;0.97;;;11.20;99.90;;;;;;4949678;28;20187;-75
2022/05/12 03:51:03;;;;;;;2.73;1.20;;;11.20;99.90;;;;;;4954120;28;20201;-75
2022/05/12 03:53:48;;;;;;;3.10;1.00;;;11.20;99.90;;;;;;4953855;28;20265;-75
2022/05/12 03:56:33;;;;;;;2.67;0.90;;;11.20;99.90;;;;;;4954584;28;20243;-75
2022/05/12 03:59:17;;;;;;;5.73;1.50;;;11.10;99.90;;;;;;4957292;28;20266;-75
2022/05/12 04:02:01;;;;;;;3.53;1.20;;;11.20;99.90;;;;;;4955623;28;20193;-75
2022/05/12 04:04:48;;;;;;;5.77;1.40;;;11.10;99.90;;;;;;4965873;28;20261;-75
2022/05/12 04:07:33;;;;;;;3.57;1.13;;;11.00;99.90;;;;;;4954436;28;20249;-75
2022/05/12 04:10:18;;;;;;;4.73;1.67;;;11.00;99.90;;;;;;4953784;28;20224;-74
2022/05/12 04:13:02;;;;;;;3.77;1.53;;;11.00;99.90;;;;;;4947615;28;20229;-75
2022/05/12 04:15:47;;;;;;;4.00;1.23;;;11.00;99.90;;;;;;4953483;28;20673;-75
2022/05/12 04:18:31;;;;;;;5.17;1.07;;;11.00;99.90;;;;;;4955412;28;20273;-75
2022/05/12 04:21:18;;;;;;;2.50;1.10;;;11.00;99.90;;;;;;4950449;28;20201;-74
2022/05/12 04:24:04;;;;;;;2.53;1.03;;;11.00;99.90;;;;;;4969439;28;20216;-74
2022/05/12 04:26:48;;;;;;;5.17;1.57;;;10.90;99.90;;;;;;4952832;28;20273;-75
2022/05/12 04:29:36;;;;;;;2.60;1.20;;;10.90;99.90;;;;;;4956944;28;20200;-75
2022/05/12 04:32:21;;;;;;;5.47;1.20;;;10.90;99.90;;;;;;4949115;28;20217;-75
2022/05/12 04:35:14;;;;;;;2.33;1.10;;;10.90;99.90;;;;;;4955197;28;20292;-75
2022/05/12 04:37:58;;;;;;;4.87;1.40;;;10.90;99.90;;;;;;4958985;28;20233;-75
2022/05/12 04:40:43;;;;;;;3.30;1.30;;;10.90;99.90;;;;;;4953164;28;20219;-75
2022/05/12 04:43:27;;;;;;;6.77;1.60;;;11.00;99.90;;;;;;4955423;28;20220;-74
2022/05/12 04:46:12;;;;;;;7.00;1.60;;;11.00;99.90;;;;;;4949243;28;20252;-76
2022/05/12 04:48:56;;;;;;;5.23;1.53;;;11.00;99.90;;;;;;4954414;28;20237;-75
2022/05/12 04:51:41;;;;;;;3.67;1.50;;;11.00;99.90;;;;;;4954387;28;20185;-76
2022/05/12 04:54:25;;;;;;;5.67;1.50;;;11.00;99.90;;;;;;4952010;28;20237;-74
2022/05/12 04:57:10;;;;;;;3.73;1.20;;;11.00;99.90;;;;;;4955223;28;20294;-75
2022/05/12 04:59:57;;;;;;;5.83;1.87;;;11.10;99.90;;;;;;4953711;28;20201;-75
2022/05/12 05:02:41;;;;;;;5.80;1.50;;;11.10;99.90;;;;;;4966708;28;20209;-75
2022/05/12 05:05:26;;;;;;;2.30;1.53;;;11.20;99.90;;;;;;4955389;28;20451;-75
2022/05/12 05:08:16;;;;;;;3.63;1.43;;;11.10;99.90;;;;;;4955031;28;20222;-75
2022/05/12 05:11:03;;;;;;;5.13;1.90;;;11.20;99.90;;;;;;4938623;28;20253;-75
2022/05/12 05:13:48;;;;;;;3.00;1.67;;;11.20;99.90;;;;;;4952500;28;20213;-75
2022/05/12 05:16:33;;;;;;;2.50;1.50;;;11.30;99.90;;;;;;4955299;28;20313;-74
2022/05/12 05:19:17;;;;;;;4.43;1.60;;;11.30;99.90;;;;;;4959860;28;20695;-74
2022/05/12 05:22:02;;;;;;;7.67;1.97;;;11.40;99.90;;;;;;4953564;28;20654;-75
2022/05/12 05:24:46;;;;;;;3.87;1.50;;;11.40;99.90;;;;;;4970528;28;20249;-74
2022/05/12 05:27:30;;;;;;;3.57;1.30;;;11.50;99.90;;;;;;4955764;28;20186;-74
2022/05/12 05:30:18;;;;;;;7.80;2.10;;;11.50;99.90;;;;;;4954002;28;20377;-74
2022/05/12 05:33:03;;;;;;;7.33;1.67;;;11.50;99.90;;;;;;4953501;28;20225;-74
2022/05/12 05:35:48;;;;;;;5.50;1.50;;;11.60;99.90;;;;;;4955997;28;20253;-75
2022/05/12 05:38:33;;;;;;;3.77;1.60;;;11.70;99.90;;;;;;4956568;28;20196;-75
2022/05/12 05:41:17;;;;;;;4.07;1.50;;;11.70;99.90;;;;;;4971221;28;20213;-75
2022/05/12 05:44:01;;;;;;;6.13;1.57;;;11.80;99.90;;;;;;4950276;28;20252;-75
2022/05/12 05:46:46;;;;;;;7.13;1.40;;;11.70;99.90;;;;;;4951717;28;20248;-75
2022/05/12 05:49:30;;;;;;;5.67;1.90;;;11.80;99.90;;;;;;4973703;28;20181;-74
2022/05/12 05:55:18;;;;;;;3.57;1.50;;;12.00;99.90;;;;;;4965196;28;20243;-75
2022/05/12 05:58:04;;;;;;;6.97;1.90;;;12.00;99.90;;;;;;4949915;28;20185;-75
2022/05/12 06:00:48;;;;;;;8.17;2.10;;;12.00;99.90;;;;;;4970769;28;20221;-74
2022/05/12 06:03:33;;;;;;;4.90;2.00;;;12.10;99.90;;;;;;4955330;28;20285;-75
2022/05/12 06:06:17;;;;;;;7.47;2.10;;;12.20;99.90;;;;;;4967738;28;20205;-74
2022/05/12 06:09:03;;;;;;;4.90;2.70;;;12.20;99.90;;;;;;4958129;28;20193;-75
2022/05/12 06:11:48;;;;;;;8.83;2.80;;;12.30;99.90;;;;;;4966844;28;20244;-75
2022/05/12 06:14:33;;;;;;;4.80;2.27;;;12.30;99.90;;;;;;4963082;28;20246;-75
2022/05/12 06:17:17;;;;;;;8.83;3.23;;;12.40;99.90;;;;;;4947437;28;20216;-75
2022/05/12 06:20:06;;;;;;;5.93;2.40;;;12.40;99.90;;;;;;4965359;28;20329;-74
2022/05/12 06:22:50;;;;;;;8.07;2.83;;;12.40;99.90;;;;;;4955772;28;20634;-75
2022/05/12 06:25:35;;;;;;;5.13;2.50;;;12.40;99.90;;;;;;4967326;28;20671;-75
2022/05/12 06:28:19;;;;;;;6.50;2.70;;;12.50;99.90;;;;;;4954830;28;20268;-75
2022/05/12 06:31:04;;;;;;;6.10;3.27;;;12.60;99.90;;;;;;4967215;28;20194;-75
2022/05/12 06:33:48;;;;;;;6.00;2.97;;;12.60;99.90;;;;;;4968979;28;20277;-75
2022/05/12 06:36:33;;;;;;;10.10;3.23;;;12.60;99.90;;;;;;4959339;28;20202;-75
2022/05/12 06:39:17;;;;;;;6.57;3.13;;;12.70;99.90;;;;;;4955731;28;20265;-75
2022/05/12 06:42:01;;;;;;;9.53;3.30;;;12.80;99.90;;;;;;4953072;28;20201;-75
2022/05/12 06:44:45;;;;;;;6.67;3.90;;;12.90;99.90;;;;;;4952075;28;20221;-75
2022/05/12 06:47:31;;;;;;;8.10;3.43;;;13.00;99.90;;;;;;4949869;29;20198;-75
2022/05/12 06:50:17;;;;;;;5.67;3.83;;;13.10;99.90;;;;;;4964672;28;20289;-75
2022/05/12 06:53:01;;;;;;;5.00;3.23;;;13.10;99.90;;;;;;4954904;28;20225;-76
2022/05/12 06:55:45;;;;;;;8.77;3.60;;;13.20;99.90;;;;;;4951179;28;20200;-75
2022/05/12 06:58:29;;;;;;;7.90;4.07;;;13.20;99.90;;;;;;4968195;28;20257;-75
2022/05/12 07:01:13;;;;;;;6.63;4.03;;;13.30;99.90;;;;;;4951734;28;20197;-75
2022/05/12 07:03:58;;;;;;;6.33;3.43;;;13.40;99.90;;;;;;4946459;29;20261;-75
2022/05/12 07:06:43;;;;;;;7.53;3.77;;;13.50;99.90;;;;;;4944894;28;20296;-75
2022/05/12 07:09:27;;;;;;;9.53;4.30;;;13.60;99.90;;;;;;4953059;28;20707;-74
2022/05/12 07:12:12;;;;;;;8.27;3.77;;;13.60;99.90;;;;;;4956461;28;20272;-75
2022/05/12 07:14:56;;;;;;;6.40;3.80;;;13.70;99.90;;;;;;4950741;28;20197;-76
2022/05/12 07:17:43;;;;;;;5.93;4.10;;;13.70;99.90;;;;;;4955981;28;20197;-75
2022/05/12 07:26:39;;;;;;;13.10;3.40;;;13.90;99.90;;;;;;4968388;28;20196;-75
2022/05/12 07:29:27;;;;;;;3.63;2.80;;;13.90;99.90;;;;;;4962224;28;20188;-75
2022/05/12 07:32:13;;;;;;;6.33;2.93;;;14.00;99.90;;;;;;4942985;28;20189;-75
2022/05/12 07:34:57;;;;;;;6.03;3.40;;;14.00;99.90;;;;;;4959015;28;20224;-75
2022/05/12 07:37:42;;;;;;;8.77;3.57;;;14.10;99.90;;;;;;4965799;28;20204;-75
2022/05/12 07:40:26;;;;;;;7.07;3.30;;;14.10;99.90;;;;;;4979143;28;20220;-75
2022/05/12 07:43:10;;;;;;;5.77;3.07;;;14.20;99.90;;;;;;4980033;28;20217;-75
2022/05/12 07:45:54;;;;;;;6.93;2.90;;;14.30;99.90;;;;;;4970753;28;20254;-75
2022/05/12 07:48:39;;;;;;;3.53;2.83;;;14.40;99.90;;;;;;4975527;28;20264;-75
2022/05/12 07:51:24;;;;;;;4.20;2.80;;;14.50;99.90;;;;;;4956854;28;20209;-76
2022/05/12 07:54:08;;;;;;;4.53;2.10;;;14.50;99.90;;;;;;4959623;28;20213;-76
2022/05/12 07:56:53;;;;;;;7.23;2.80;;;14.60;99.90;;;;;;4955022;28;20236;-74
2022/05/12 07:59:37;;;;;;;7.93;2.90;;;14.60;99.90;;;;;;4960619;28;20228;-74
2022/05/12 08:02:22;;;;;;;6.20;2.63;;;14.70;99.90;;;;;;4960268;28;20301;-75
2022/05/12 08:05:06;;;;;;;9.00;2.30;;;14.80;99.90;;;;;;4959538;28;20217;-75
2022/05/12 08:07:52;;;;;;;2.83;1.90;;;14.80;99.90;;;;;;4961092;28;20197;-76
2022/05/12 08:10:36;;;;;;;7.03;2.13;;;14.90;99.90;;;;;;4959688;28;20201;-74
2022/05/12 08:13:21;;;;;;;2.93;1.83;;;14.90;99.90;;;;;;4958671;28;20250;-76
2022/05/12 08:16:06;;;;;;;4.50;2.43;;;15.00;99.90;;;;;;4959645;28;20281;-75
2022/05/12 08:18:51;;;;;;;3.97;2.10;;;15.00;99.90;;;;;;4958011;28;20272;-76
2022/05/12 08:21:36;;;;;;;4.43;2.10;;;15.10;99.90;;;;;;4958943;28;20193;-75
2022/05/12 08:24:20;;;;;;;4.03;1.90;;;15.20;99.90;;;;;;4956949;28;20268;-76
2022/05/12 08:27:05;;;;;;;4.10;1.73;;;15.30;99.90;;;;;;4974809;28;20226;-75
2022/05/12 08:29:49;;;;;;;3.83;2.00;;;15.30;99.90;;;;;;4975331;28;20233;-75
2022/05/12 08:32:34;;;;;;;4.73;2.03;;;15.40;99.90;;;;;;4960324;28;20756;-75
2022/05/12 08:35:18;;;;;;;4.97;2.00;;;15.40;99.90;;;;;;4958682;28;20228;-76
2022/05/12 08:38:02;;;;;;;4.53;1.70;;;15.40;99.90;;;;;;4960195;28;20198;-75
2022/05/12 08:41:03;;;;;;;2.27;1.40;;;15.50;99.90;;;;;;4959348;28;20661;-75
2022/05/12 08:43:59;;;;;;;4.70;1.53;;;15.60;99.90;;;;;;4959607;28;20253;-75
2022/05/12 08:46:57;;;;;;;5.73;1.80;;;15.70;99.90;;;;;;4960579;28;20166;-75
2022/05/12 08:49:53;;;;;;;5.67;2.03;;;15.80;99.90;;;;;;4954786;28;20722;-74
2022/05/12 08:52:47;;;;;;;3.60;1.43;;;15.90;99.90;;;;;;4957854;28;20342;-74
2022/05/12 08:55:59;;;;;;;3.67;2.03;;;15.90;99.90;;;;;;4950291;28;20662;-75
2022/05/12 08:58:44;;;;;;;11.80;2.13;;;16.00;99.90;;;;;;4952008;28;20218;-73
2022/05/12 09:01:36;;;;;;;4.33;2.33;;;15.90;99.90;;;;;;4972913;28;20182;-75
2022/05/12 09:05:12;;;;;;;2.93;1.27;;;16.00;99.90;;;;;;4952479;28;20232;-75
2022/05/12 09:08:27;;;;;;;2.97;1.23;;;16.10;99.90;;;;;;4940636;28;20277;-75
2022/05/12 09:11:24;;;;;;;4.80;1.50;;;16.10;99.90;;;;;;4973851;28;20297;-74
2022/05/12 09:14:37;;;;;;;6.07;1.60;;;16.20;99.90;;;;;;4957345;28;20273;-74
2022/05/12 09:17:27;;;;;;;5.77;1.40;;;16.30;99.90;;;;;;4927460;28;20206;-75
2022/05/12 09:20:13;;;;;;;2.77;1.30;;;16.50;99.90;;;;;;4961948;28;20217;-74
2022/05/12 09:22:58;;;;;;;2.50;1.30;;;16.60;99.90;;;;;;4972755;28;20224;-74
2022/05/12 09:25:48;;;;;;;3.87;1.60;;;16.60;99.90;;;;;;4954052;28;20197;-75
2022/05/12 09:28:37;;;;;;;5.00;1.40;;;16.70;99.90;;;;;;4959218;28;20181;-74
2022/05/12 09:31:23;;;;;;;3.30;1.50;;;16.80;99.90;;;;;;4967890;28;20253;-75
2022/05/12 09:34:21;;;;;;;7.10;1.40;;;16.90;99.90;;;;;;4954182;28;20273;-75
2022/05/12 09:37:19;;;;;;;2.47;1.37;;;17.00;99.90;;;;;;4984443;28;20205;-75
2022/05/12 09:40:20;;;;;;;4.00;1.40;;;17.00;99.90;;;;;;4940206;28;20194;-74
2022/05/12 09:43:29;;;;;;;4.30;1.30;;;16.90;99.90;;;;;;4957426;28;20212;-75
2022/05/12 09:46:22;;;;;;;4.57;1.30;;;16.90;99.90;;;;;;4957959;28;20189;-75
2022/05/12 09:49:23;;;;;;;2.57;1.23;;;16.90;99.90;;;;;;4954351;28;20205;-75
2022/05/12 09:52:32;;;;;;;3.43;1.20;;;16.90;99.90;;;;;;4957471;28;20270;-76
2022/05/12 09:55:24;;;;;;;2.13;1.33;;;16.90;99.90;;;;;;4953748;28;20694;-76
2022/05/12 09:58:14;;;;;;;1.73;0.90;;;16.90;99.90;;;;;;4955721;28;20252;-76
2022/05/12 10:01:16;;;;;;;3.70;1.17;;;16.90;99.90;;;;;;4949892;28;20195;-75
2022/05/12 10:10:30;;;;;;;5.10;1.37;;;17.00;99.90;;;;;;4953246;28;20237;-74
2022/05/12 10:13:29;;;;;;;1.67;0.90;;;17.00;99.90;;;;;;4961096;28;20642;-74
2022/05/12 10:16:18;;;;;;;7.00;1.13;;;17.10;99.90;;;;;;4955681;28;20202;-75
2022/05/12 10:19:12;;;;;;;2.23;1.00;;;17.20;99.90;;;;;;4974451;28;20185;-75
2022/05/12 10:22:16;;;;;;;4.77;1.30;;;17.30;99.90;;;;;;4972962;28;20221;-75
2022/05/12 10:25:15;;;;;;;3.47;1.13;;;17.40;99.90;;;;;;4966747;28;20212;-75
2022/05/12 10:28:13;;;;;;;1.33;0.73;;;17.50;99.90;;;;;;4976719;28;20224;-75
2022/05/12 10:31:03;;;;;;;3.53;0.73;;;17.60;99.90;;;;;;4958467;28;20706;-74
2022/05/12 10:34:00;;;;;;;2.17;0.93;;;17.70;99.90;;;;;;4964152;28;20373;-75
2022/05/12 10:37:24;;;;;;;2.60;0.90;;;17.80;99.90;;;;;;4949306;28;20628;-75
2022/05/12 10:40:22;;;;;;;9.90;1.83;;;17.90;99.90;;;;;;4952518;28;20277;-74
2022/05/12 10:43:25;;;;;;;1.73;0.90;;;17.90;99.90;;;;;;4959690;28;20221;-75
2022/05/12 10:46:36;;;;;;;3.57;0.73;;;17.80;99.90;;;;;;4961615;28;20193;-74
2022/05/12 10:49:47;;;;;;;5.93;0.80;;;17.80;99.90;;;;;;4968686;28;20193;-74
2022/05/12 10:52:52;;;;;;;2.87;1.00;;;17.70;99.90;;;;;;4968676;28;20226;-74
2022/05/12 10:55:48;;;;;;;1.87;0.87;;;17.80;99.90;;;;;;4958759;28;20875;-74
2022/05/12 10:58:45;;;;;;;2.80;1.10;;;17.80;99.90;;;;;;4956986;28;20196;-74
2022/05/12 11:01:42;;;;;;;7.47;1.10;;;17.80;99.90;;;;;;4956753;28;20581;-74
2022/05/12 11:04:53;;;;;;;5.40;1.77;;;17.80;99.90;;;;;;4957558;28;20201;-74
2022/05/12 11:07:54;;;;;;;3.67;0.90;;;17.80;99.90;;;;;;4957442;28;20240;-74
2022/05/12 11:10:44;;;;;;;3.33;0.73;;;17.80;99.90;;;;;;4956601;28;20196;-74
2022/05/12 11:13:36;;;;;;;2.80;1.00;;;17.80;99.90;;;;;;4971530;28;20220;-74
2022/05/12 11:16:29;;;;;;;4.67;0.93;;;17.80;99.90;;;;;;4948972;28;20202;-74
2022/05/12 11:19:23;;;;;;;2.47;1.00;;;17.80;99.90;;;;;;4949005;28;20197;-74
2022/05/12 11:22:19;;;;;;;6.73;1.30;;;17.80;99.90;;;;;;4941034;28;20220;-74
2022/05/12 11:25:24;;;;;;;4.63;1.73;;;17.70;99.90;;;;;;4954559;28;20257;-74
2022/05/12 11:31:53;;;;;;;16.47;2.57;;;17.70;99.90;;;;;;4961761;28;20202;-74
2022/05/12 11:34:40;;;;;;;4.60;1.27;;;17.70;99.90;;;;;;4956294;28;20275;-74
2022/05/12 11:37:34;;;;;;;5.60;1.60;;;17.70;99.90;;;;;;4958131;28;20673;-73
2022/05/12 11:40:41;;;;;;;3.33;1.40;;;17.70;99.90;;;;;;4977558;28;20237;-74
2022/05/12 11:47:17;;;;;;;4.27;1.20;;;18.00;99.90;;;;;;4963278;28;20206;-74
2022/05/12 11:50:07;;;;;;;1.55;1.05;;;18.20;99.90;;;;;;4966132;28;20189;-74
2022/05/12 11:53:10;;;;;;;2.93;1.10;;;18.50;99.90;;;;;;4950100;28;20221;-74
2022/05/12 11:56:32;;;;;;;5.22;1.40;;;18.50;99.90;;;;;;4963910;28;20216;-73
2022/05/12 11:59:44;;;;;;;4.43;1.07;;;18.60;99.90;;;;;;4954871;28;20232;-74
2022/05/12 12:02:29;;;;;;;5.93;1.30;;;18.60;99.90;;;;;;4971793;28;20209;-74
2022/05/12 12:05:33;;;;;;;6.17;1.37;;;18.60;99.90;;;;;;4960180;28;20213;-74
2022/05/12 12:08:30;;;;;;;7.97;1.40;;;18.70;99.90;;;;;;4951138;28;20607;-74
2022/05/12 12:11:14;;;;;;;4.10;1.25;;;18.60;99.90;;;;;;4956299;28;20245;-74
2022/05/12 12:14:00;;;;;;;5.70;1.50;;;18.70;99.90;;;;;;4937744;29;20694;-73
2022/05/12 12:17:03;;;;;;;1.60;1.00;;;18.70;99.90;;;;;;4973347;28;20731;-74
2022/05/12 12:19:49;;;;;;;5.57;0.98;;;18.70;99.90;;;;;;4959843;28;20185;-74
2022/05/12 12:22:47;;;;;;;2.93;1.13;;;18.70;99.90;;;;;;4956687;28;20245;-74
2022/05/12 12:25:39;;;;;;;2.28;0.90;;;18.80;99.90;;;;;;4953786;28;20233;-74
2022/05/12 12:28:34;;;;;;;2.77;1.10;;;18.80;99.90;;;;;;4956949;28;20189;-76
2022/05/12 12:31:26;;;;;;;4.47;1.17;;;18.80;99.90;;;;;;4949024;28;20205;-75
2022/05/12 12:34:21;;;;;;;2.65;1.15;;;18.80;99.90;;;;;;4960026;28;20322;-74
2022/05/12 12:37:09;;;;;;;5.90;1.20;;;18.80;99.90;;;;;;4960510;28;20178;-74
2022/05/12 12:39:55;;;;;;;2.60;1.47;;;18.60;99.90;;;;;;4949176;28;20189;-74
2022/05/12 12:42:44;;;;;;;4.30;1.10;;;18.60;99.90;;;;;;4960183;28;20260;-74
2022/05/12 12:45:28;;;;;;;2.10;1.10;;;18.60;99.90;;;;;;4957848;28;20197;-74
2022/05/12 12:48:19;;;;;;;2.47;1.30;;;18.60;99.90;;;;;;4954216;28;20285;-74
2022/05/12 12:51:03;;;;;;;1.63;1.07;;;18.50;99.90;;;;;;4955917;28;20228;-74
2022/05/12 12:56:50;;;;;;;6.13;1.40;;;18.40;99.90;;;;;;4971056;28;20269;-74
2022/05/12 12:59:40;;;;;;;3.77;0.90;;;18.40;99.90;;;;;;4963732;28;20241;-74
2022/05/12 13:02:58;;;;;;;1.20;1.10;;;18.40;99.90;;;;;;4939148;28;20641;-73
2022/05/12 13:05:43;;;;;;;3.47;1.20;;;18.50;99.90;;;;;;4916750;29;20214;-73
2022/05/12 13:08:30;;;;;;;3.20;1.37;;;18.50;99.90;;;;;;4940299;29;20246;-73
2022/05/12 13:11:19;;;;;;;3.13;1.10;;;18.70;99.90;;;;;;4949869;28;20225;-73
2022/05/12 13:14:04;;;;;;;4.40;0.97;;;18.80;99.90;;;;;;4955510;28;20217;-73
2022/05/12 13:16:49;;;;;;;1.67;1.00;;;18.80;99.90;;;;;;4956351;28;20277;-73
2022/05/12 13:19:39;;;;;;;4.37;1.10;;;18.90;99.90;;;;;;4954424;28;20197;-73
2022/05/12 13:22:27;;;;;;;4.43;1.10;;;19.00;99.90;;;;;;4939875;29;20270;-74
2022/05/12 13:25:26;;;;;;;4.93;1.10;;;19.10;99.90;;;;;;4947616;28;20696;-73
2022/05/12 13:28:19;;;;;;;3.55;1.13;;;19.40;99.90;;;;;;4971035;28;20178;-73
2022/05/12 13:31:24;;;;;;;6.45;1.48;;;19.50;99.90;;;;;;4947421;28;20227;-73
2022/05/12 13:34:11;;;;;;;2.45;1.02;;;19.70;99.90;;;;;;4968438;28;20759;-72
2022/05/12 13:37:11;;;;;;;4.30;1.00;;;19.70;99.90;;;;;;4948070;29;20500;-72
2022/05/12 13:39:59;;;;;;;2.90;1.02;;;19.90;99.90;;;;;;4969221;28;20233;-73
2022/05/12 13:42:49;;;;;;;6.20;1.27;;;20.00;99.90;;;;;;4958918;28;20212;-74
2022/05/12 13:45:35;;;;;;;3.63;1.10;;;20.00;99.90;;;;;;4954662;28;20234;-73
2022/05/12 13:48:22;;;;;;;5.45;1.02;;;20.00;99.90;;;;;;4968325;28;20198;-73
2022/05/12 13:51:06;;;;;;;2.45;0.98;;;20.10;99.90;;;;;;4942513;28;20221;-73
2022/05/12 13:53:52;;;;;;;2.80;0.80;;;20.00;99.90;;;;;;4954324;29;20222;-73
2022/05/12 13:56:38;;;;;;;4.88;0.90;;;19.90;99.90;;;;;;4956070;28;20249;-73
2022/05/12 13:59:29;;;;;;;6.75;1.05;;;19.90;99.90;;;;;;4952892;28;20248;-71
2022/05/12 14:02:19;;;;;;;3.60;1.15;;;19.80;99.90;;;;;;4953428;28;20253;-73
2022/05/12 14:05:12;;;;;;;6.00;1.17;;;19.80;99.90;;;;;;4953080;28;20217;-73
2022/05/12 14:08:07;;;;;;;4.85;1.10;;;19.80;99.90;;;;;;4971595;28;20198;-73
2022/05/12 14:11:08;;;;;;;4.45;1.00;;;19.90;99.90;;;;;;4965757;28;20324;-72
2022/05/12 14:20:19;;;;;;;3.58;1.25;;;19.90;99.90;;;;;;4954942;28;20206;-73
2022/05/12 14:23:03;;;;;;;5.80;0.90;;;20.00;99.90;;;;;;4940696;28;20237;-73
2022/05/12 14:25:48;;;;;;;2.65;0.93;;;19.90;99.90;;;;;;4960083;28;20269;-73
2022/05/12 14:28:32;;;;;;;3.55;1.00;;;19.80;99.90;;;;;;4977468;28;20221;-73
2022/05/12 14:31:20;;;;;;;3.03;1.13;;;19.80;99.90;;;;;;4956132;28;20197;-74
2022/05/12 14:34:07;;;;;;;4.18;1.13;;;19.80;99.90;;;;;;4972550;28;20217;-73
2022/05/12 14:36:52;;;;;;;1.63;1.10;;;19.80;99.90;;;;;;4967528;28;20202;-73
2022/05/12 14:39:36;;;;;;;1.55;1.15;;;19.90;99.90;;;;;;4964028;28;20205;-73
2022/05/12 14:42:20;;;;;;;4.80;1.20;;;19.90;99.90;;;;;;4972458;28;20233;-74
2022/05/12 14:45:05;;;;;;;4.68;0.98;;;19.90;99.90;;;;;;4957435;28;20205;-74
2022/05/12 14:47:55;;;;;;;4.80;1.08;;;19.90;99.90;;;;;;4969466;28;20216;-73
2022/05/12 14:50:39;;;;;;;2.70;0.80;;;19.90;99.90;;;;;;4968997;28;20583;-74
2022/05/12 14:53:24;;;;;;;1.42;0.82;;;19.80;99.90;;;;;;4955216;28;20281;-74
2022/05/12 14:56:08;;;;;;;1.95;0.77;;;19.80;99.90;;;;;;4954239;28;20208;-74
2022/05/12 14:58:53;;;;;;;3.28;0.80;;;19.80;99.90;;;;;;4943353;28;20677;-74
2022/05/12 15:01:38;;;;;;;5.85;0.90;;;19.80;99.90;;;;;;4971126;28;20213;-74
2022/05/12 15:04:29;;;;;;;1.10;0.80;;;19.70;99.90;;;;;;4972895;28;20305;-73
2022/05/12 15:07:14;;;;;;;2.20;0.82;;;19.70;99.90;;;;;;4950510;28;20189;-75
2022/05/12 15:09:58;;;;;;;1.38;0.90;;;19.70;99.90;;;;;;4967022;28;20197;-76